createdAt,value
2017-04-09T00:00:01.886Z,1018.20
2017-04-09T00:01:01.942Z,1018.21
2017-04-09T00:02:01.998Z,1018.20
2017-04-09T00:03:01.954Z,1018.17
2017-04-09T00:04:01.961Z,1018.17
2017-04-09T00:05:01.999Z,1018.19
2017-04-09T00:05:56.047Z,1018.13
2017-04-09T00:06:57.092Z,1018.19
2017-04-09T00:07:57.165Z,1018.17
2017-04-09T00:08:57.190Z,1018.14
2017-04-09T00:09:57.097Z,1018.13
2017-04-09T00:10:57.156Z,1018.16
2017-04-09T00:11:52.178Z,1018.11
2017-04-09T00:12:46.218Z,1018.11
2017-04-09T00:13:46.244Z,1018.10
2017-04-09T00:14:41.235Z,1018.09
2017-04-09T00:15:41.293Z,1018.11
2017-04-09T00:16:35.307Z,1018.04
2017-04-09T00:17:35.282Z,1018.05
2017-04-09T00:18:30.423Z,1018.03
2017-04-09T00:19:25.448Z,1018.05
2017-04-09T00:20:25.448Z,1018.04
2017-04-09T00:21:20.523Z,1018.05
2017-04-09T00:22:15.500Z,1018.04
2017-04-09T00:23:15.521Z,1018.01
2017-04-09T00:24:10.640Z,1018.06
2017-04-09T00:25:05.610Z,1018.02
2017-04-09T00:26:06.590Z,1018.06
2017-04-09T00:27:06.608Z,1018.07
2017-04-09T00:28:06.651Z,1018.04
2017-04-09T00:29:01.658Z,1018.04
2017-04-09T00:29:55.719Z,1018.03
2017-04-09T00:30:55.778Z,1018.04
2017-04-09T00:31:50.778Z,1018.03
2017-04-09T00:32:50.858Z,1018.06
2017-04-09T00:33:44.867Z,1018.02
2017-04-09T00:34:44.858Z,1018.06
2017-04-09T00:35:39.871Z,1018.04
2017-04-09T00:36:34.922Z,1018.04
2017-04-09T00:37:35.286Z,1017.98
2017-04-09T00:38:29.930Z,1018.01
2017-04-09T00:39:25.006Z,1018.02
2017-04-09T00:40:31.007Z,1018.02
2017-04-09T00:41:25.023Z,1018.00
2017-04-09T00:42:25.075Z,1017.98
2017-04-09T00:43:20.399Z,1018.01
2017-04-09T00:44:20.061Z,1017.99
2017-04-09T00:45:14.224Z,1018.06
2017-04-09T00:46:14.221Z,1017.99
2017-04-09T00:47:09.227Z,1018.00
2017-04-09T00:48:04.238Z,1017.99
2017-04-09T00:49:04.262Z,1018.01
2017-04-09T00:49:59.409Z,1018.00
2017-04-09T00:50:54.341Z,1018.00
2017-04-09T00:51:54.328Z,1018.02
2017-04-09T00:52:49.417Z,1017.99
2017-04-09T00:53:44.420Z,1018.02
2017-04-09T00:54:45.414Z,1018.01
2017-04-09T00:55:46.450Z,1018.01
2017-04-09T00:56:41.502Z,1017.95
2017-04-09T00:57:35.969Z,1017.97
2017-04-09T00:58:35.731Z,1017.99
2017-04-09T00:59:35.552Z,1017.98
2017-04-09T01:00:30.607Z,1017.96
2017-04-09T01:01:24.618Z,1017.94
2017-04-09T01:02:24.667Z,1017.98
2017-04-09T01:03:19.998Z,1017.99
2017-04-09T01:04:14.738Z,1017.96
2017-04-09T01:05:15.746Z,1017.97
2017-04-09T01:06:15.727Z,1017.97
2017-04-09T01:07:15.742Z,1018.00
2017-04-09T01:08:15.824Z,1018.00
2017-04-09T01:09:16.856Z,1017.95
2017-04-09T01:10:17.837Z,1017.98
2017-04-09T01:11:11.926Z,1017.94
2017-04-09T01:12:11.893Z,1017.95
2017-04-09T01:13:06.933Z,1017.99
2017-04-09T01:14:01.958Z,1017.97
2017-04-09T01:15:03.354Z,1017.97
2017-04-09T01:16:09.039Z,1017.93
2017-04-09T01:17:03.042Z,1017.90
2017-04-09T01:18:03.092Z,1017.96
2017-04-09T01:19:03.126Z,1017.91
2017-04-09T01:19:58.115Z,1017.88
2017-04-09T01:20:52.307Z,1017.92
2017-04-09T01:21:53.213Z,1017.92
2017-04-09T01:22:53.251Z,1017.93
2017-04-09T01:23:48.244Z,1017.86
2017-04-09T01:24:54.228Z,1017.86
2017-04-09T01:25:49.243Z,1017.87
2017-04-09T01:26:43.327Z,1017.86
2017-04-09T01:27:43.377Z,1017.88
2017-04-09T01:28:43.366Z,1017.84
2017-04-09T01:29:43.439Z,1017.86
2017-04-09T01:30:44.431Z,1017.82
2017-04-09T01:31:45.496Z,1017.88
2017-04-09T01:32:39.529Z,1017.86
2017-04-09T01:33:39.520Z,1017.84
2017-04-09T01:34:34.534Z,1017.84
2017-04-09T01:35:29.559Z,1017.83
2017-04-09T01:36:29.588Z,1017.82
2017-04-09T01:37:24.702Z,1017.81
2017-04-09T01:38:19.625Z,1017.81
2017-04-09T01:39:19.770Z,1017.79
2017-04-09T01:40:14.674Z,1017.78
2017-04-09T01:41:09.735Z,1017.79
2017-04-09T01:42:10.742Z,1017.80
2017-04-09T01:43:10.852Z,1017.75
2017-04-09T01:44:10.783Z,1017.74
2017-04-09T01:45:05.814Z,1017.74
2017-04-09T01:45:59.833Z,1017.73
2017-04-09T01:46:59.900Z,1017.71
2017-04-09T01:47:54.955Z,1017.74
2017-04-09T01:48:54.926Z,1017.71
2017-04-09T01:49:48.988Z,1017.75
2017-04-09T01:50:48.995Z,1017.73
2017-04-09T01:51:43.998Z,1017.73
2017-04-09T01:52:39.071Z,1017.72
2017-04-09T01:53:39.073Z,1017.73
2017-04-09T01:54:34.215Z,1017.74
2017-04-09T01:55:29.117Z,1017.77
2017-04-09T01:56:30.148Z,1017.75
2017-04-09T01:57:30.298Z,1017.79
2017-04-09T01:58:30.203Z,1017.76
2017-04-09T01:59:25.244Z,1017.76
2017-04-09T02:00:19.254Z,1017.80
2017-04-09T02:01:19.343Z,1017.82
2017-04-09T02:02:14.326Z,1017.77
2017-04-09T02:03:14.339Z,1017.79
2017-04-09T02:04:08.358Z,1017.78
2017-04-09T02:05:08.347Z,1017.80
2017-04-09T02:06:03.470Z,1017.74
2017-04-09T02:07:03.453Z,1017.78
2017-04-09T02:08:03.458Z,1017.76
2017-04-09T02:09:03.541Z,1017.78
2017-04-09T02:09:57.573Z,1017.74
2017-04-09T02:10:58.563Z,1017.78
2017-04-09T02:11:59.614Z,1017.77
2017-04-09T02:12:54.593Z,1017.77
2017-04-09T02:13:48.617Z,1017.77
2017-04-09T02:14:49.624Z,1017.76
2017-04-09T02:15:50.751Z,1017.77
2017-04-09T02:16:45.716Z,1017.75
2017-04-09T02:17:39.700Z,1017.72
2017-04-09T02:18:39.747Z,1017.71
2017-04-09T02:19:39.751Z,1017.75
2017-04-09T02:20:39.841Z,1017.72
2017-04-09T02:21:45.845Z,1017.73
2017-04-09T02:22:40.853Z,1017.71
2017-04-09T02:23:40.890Z,1017.71
2017-04-09T02:24:34.924Z,1017.68
2017-04-09T02:25:34.950Z,1017.68
2017-04-09T02:26:29.978Z,1017.67
2017-04-09T02:27:30.014Z,1017.67
2017-04-09T02:28:30.096Z,1017.64
2017-04-09T02:29:30.033Z,1017.63
2017-04-09T02:30:24.112Z,1017.64
2017-04-09T02:31:24.121Z,1017.65
2017-04-09T02:32:19.160Z,1017.63
2017-04-09T02:33:14.126Z,1017.64
2017-04-09T02:34:14.259Z,1017.63
2017-04-09T02:35:09.251Z,1017.61
2017-04-09T02:36:04.223Z,1017.62
2017-04-09T02:37:04.259Z,1017.57
2017-04-09T02:37:59.264Z,1017.60
2017-04-09T02:38:54.349Z,1017.59
2017-04-09T02:39:55.353Z,1017.57
2017-04-09T02:40:55.335Z,1017.57
2017-04-09T02:41:55.417Z,1017.57
2017-04-09T02:42:50.422Z,1017.56
2017-04-09T02:43:44.448Z,1017.61
2017-04-09T02:44:44.517Z,1017.59
2017-04-09T02:45:38.537Z,1017.58
2017-04-09T02:46:26.514Z,1017.56
2017-04-09T02:47:15.594Z,1017.61
2017-04-09T02:48:09.590Z,1017.58
2017-04-09T02:49:03.641Z,1017.57
2017-04-09T02:49:52.666Z,1017.56
2017-04-09T02:50:46.698Z,1017.56
2017-04-09T02:51:40.747Z,1017.59
2017-04-09T02:52:34.747Z,1017.57
2017-04-09T02:53:22.829Z,1017.52
2017-04-09T02:54:10.806Z,1017.54
2017-04-09T02:54:58.901Z,1017.53
2017-04-09T02:55:52.964Z,1017.54
2017-04-09T02:56:46.924Z,1017.54
2017-04-09T02:57:35.928Z,1017.57
2017-04-09T02:58:30.021Z,1017.52
2017-04-09T02:59:24.078Z,1017.53
2017-04-09T03:00:13.078Z,1017.53
2017-04-09T03:01:01.173Z,1017.51
2017-04-09T03:01:55.143Z,1017.53
2017-04-09T03:02:55.167Z,1017.53
2017-04-09T03:03:44.148Z,1017.50
2017-04-09T03:04:33.202Z,1017.52
2017-04-09T03:05:21.263Z,1017.51
2017-04-09T03:06:15.319Z,1017.48
2017-04-09T03:07:09.372Z,1017.49
2017-04-09T03:08:03.333Z,1017.49
2017-04-09T03:09:04.387Z,1017.48
2017-04-09T03:09:58.496Z,1017.50
2017-04-09T03:10:58.436Z,1017.46
2017-04-09T03:11:47.531Z,1017.50
2017-04-09T03:12:36.533Z,1017.47
2017-04-09T03:13:25.536Z,1017.47
2017-04-09T03:14:25.570Z,1017.50
2017-04-09T03:15:20.561Z,1017.51
2017-04-09T03:16:20.615Z,1017.49
2017-04-09T03:17:15.606Z,1017.52
2017-04-09T03:18:10.641Z,1017.48
2017-04-09T03:19:10.671Z,1017.51
2017-04-09T03:20:05.738Z,1017.50
2017-04-09T03:21:00.744Z,1017.55
2017-04-09T03:22:01.761Z,1017.49
2017-04-09T03:23:01.830Z,1017.46
2017-04-09T03:24:01.831Z,1017.43
2017-04-09T03:24:56.851Z,1017.47
2017-04-09T03:25:50.876Z,1017.43
2017-04-09T03:26:50.917Z,1017.46
2017-04-09T03:27:45.958Z,1017.47
2017-04-09T03:28:45.997Z,1017.46
2017-04-09T03:29:39.980Z,1017.46
2017-04-09T03:30:40.010Z,1017.46
2017-04-09T03:31:35.046Z,1017.44
2017-04-09T03:32:30.040Z,1017.44
2017-04-09T03:33:30.022Z,1017.48
2017-04-09T03:34:25.321Z,1017.45
2017-04-09T03:35:20.508Z,1017.44
2017-04-09T03:36:21.157Z,1017.44
2017-04-09T03:37:21.159Z,1017.46
2017-04-09T03:38:21.214Z,1017.43
2017-04-09T03:39:16.209Z,1017.42
2017-04-09T03:40:10.246Z,1017.42
2017-04-09T03:41:11.303Z,1017.42
2017-04-09T03:42:11.298Z,1017.42
2017-04-09T03:43:11.340Z,1017.43
2017-04-09T03:44:11.307Z,1017.45
2017-04-09T03:45:17.435Z,1017.46
2017-04-09T03:46:12.404Z,1017.44
2017-04-09T03:47:12.433Z,1017.41
2017-04-09T03:48:06.428Z,1017.45
2017-04-09T03:49:06.526Z,1017.45
2017-04-09T03:50:01.496Z,1017.48
2017-04-09T03:50:56.561Z,1017.43
2017-04-09T03:51:56.526Z,1017.45
2017-04-09T03:52:51.556Z,1017.45
2017-04-09T03:53:46.630Z,1017.46
2017-04-09T03:54:46.636Z,1017.43
2017-04-09T03:55:41.719Z,1017.50
2017-04-09T03:56:36.729Z,1017.46
2017-04-09T03:57:37.754Z,1017.54
2017-04-09T03:58:37.761Z,1017.52
2017-04-09T03:59:37.745Z,1017.50
2017-04-09T04:00:32.822Z,1017.49
2017-04-09T04:01:26.817Z,1017.51
2017-04-09T04:02:26.902Z,1017.48
2017-04-09T04:03:21.925Z,1017.49
2017-04-09T04:04:21.927Z,1017.46
2017-04-09T04:05:15.946Z,1017.43
2017-04-09T04:06:16.951Z,1017.45
2017-04-09T04:07:18.025Z,1017.44
2017-04-09T04:08:13.078Z,1017.43
2017-04-09T04:09:13.041Z,1017.48
2017-04-09T04:10:13.045Z,1017.46
2017-04-09T04:11:07.133Z,1017.50
2017-04-09T04:12:07.123Z,1017.44
2017-04-09T04:13:07.140Z,1017.45
2017-04-09T04:14:02.152Z,1017.49
2017-04-09T04:14:56.157Z,1017.51
2017-04-09T04:15:57.273Z,1017.52
2017-04-09T04:16:57.348Z,1017.54
2017-04-09T04:17:52.262Z,1017.51
2017-04-09T04:18:52.342Z,1017.50
2017-04-09T04:19:46.349Z,1017.50
2017-04-09T04:20:46.399Z,1017.49
2017-04-09T04:21:41.344Z,1017.49
2017-04-09T04:22:36.435Z,1017.45
2017-04-09T04:23:36.474Z,1017.49
2017-04-09T04:24:31.470Z,1017.46
2017-04-09T04:25:26.545Z,1017.47
2017-04-09T04:26:27.560Z,1017.45
2017-04-09T04:27:27.513Z,1017.49
2017-04-09T04:28:27.552Z,1017.47
2017-04-09T04:29:27.584Z,1017.48
2017-04-09T04:30:27.628Z,1017.47
2017-04-09T04:31:27.660Z,1017.52
2017-04-09T04:32:27.652Z,1017.47
2017-04-09T04:33:27.667Z,1017.53
2017-04-09T04:34:27.670Z,1017.50
2017-04-09T04:35:27.809Z,1017.51
2017-04-09T04:36:27.743Z,1017.52
2017-04-09T04:37:28.767Z,1017.49
2017-04-09T04:38:23.830Z,1017.53
2017-04-09T04:39:17.854Z,1017.55
2017-04-09T04:40:23.871Z,1017.53
2017-04-09T04:41:17.924Z,1017.53
2017-04-09T04:42:18.971Z,1017.51
2017-04-09T04:43:13.980Z,1017.50
2017-04-09T04:44:13.939Z,1017.55
2017-04-09T04:45:14.015Z,1017.54
2017-04-09T04:46:14.008Z,1017.58
2017-04-09T04:47:14.126Z,1017.52
2017-04-09T04:48:14.037Z,1017.56
2017-04-09T04:49:14.067Z,1017.57
2017-04-09T04:50:14.699Z,1017.60
2017-04-09T04:51:14.128Z,1017.63
2017-04-09T04:52:14.438Z,1017.64
2017-04-09T04:53:20.167Z,1017.62
2017-04-09T04:54:15.260Z,1017.63
2017-04-09T04:55:09.226Z,1017.64
2017-04-09T04:56:10.234Z,1017.63
2017-04-09T04:57:11.289Z,1017.64
2017-04-09T04:58:06.310Z,1017.64
2017-04-09T04:59:06.341Z,1017.66
2017-04-09T05:00:06.355Z,1017.68
2017-04-09T05:01:06.417Z,1017.69
2017-04-09T05:02:06.443Z,1017.72
2017-04-09T05:03:06.426Z,1017.72
2017-04-09T05:04:06.455Z,1017.72
2017-04-09T05:05:06.530Z,1017.72
2017-04-09T05:06:06.525Z,1017.74
2017-04-09T05:07:06.540Z,1017.77
2017-04-09T05:08:06.568Z,1017.78
2017-04-09T05:09:06.608Z,1017.75
2017-04-09T05:10:06.661Z,1017.73
2017-04-09T05:11:06.644Z,1017.74
2017-04-09T05:12:06.641Z,1017.79
2017-04-09T05:13:06.681Z,1017.73
2017-04-09T05:14:06.725Z,1017.72
2017-04-09T05:15:06.737Z,1017.72
2017-04-09T05:16:06.762Z,1017.73
2017-04-09T05:17:06.800Z,1017.75
2017-04-09T05:18:06.832Z,1017.78
2017-04-09T05:19:06.865Z,1017.78
2017-04-09T05:20:06.845Z,1017.77
2017-04-09T05:21:06.926Z,1017.82
2017-04-09T05:22:06.933Z,1017.82
2017-04-09T05:23:06.963Z,1017.79
2017-04-09T05:24:12.914Z,1017.78
2017-04-09T05:25:07.994Z,1017.82
2017-04-09T05:26:02.057Z,1017.81
2017-04-09T05:27:02.068Z,1017.83
2017-04-09T05:27:57.092Z,1017.84
2017-04-09T05:28:52.107Z,1017.84
2017-04-09T05:29:52.127Z,1017.82
2017-04-09T05:30:47.166Z,1017.86
2017-04-09T05:31:42.173Z,1017.88
2017-04-09T05:32:36.226Z,1017.85
2017-04-09T05:33:37.288Z,1017.86
2017-04-09T05:34:32.251Z,1017.84
2017-04-09T05:35:32.311Z,1017.86
2017-04-09T05:36:32.304Z,1017.86
2017-04-09T05:37:32.338Z,1017.89
2017-04-09T05:38:32.414Z,1017.88
2017-04-09T05:39:32.498Z,1017.90
2017-04-09T05:40:32.571Z,1017.88
2017-04-09T05:41:32.474Z,1017.87
2017-04-09T05:42:32.493Z,1017.84
2017-04-09T05:43:32.554Z,1017.84
2017-04-09T05:44:32.558Z,1017.84
2017-04-09T05:45:32.540Z,1017.85
2017-04-09T05:46:32.601Z,1017.79
2017-04-09T05:47:32.671Z,1017.85
2017-04-09T05:48:32.711Z,1017.83
2017-04-09T05:49:32.652Z,1017.88
2017-04-09T05:50:32.649Z,1017.88
2017-04-09T05:51:32.762Z,1017.84
2017-04-09T05:52:38.733Z,1017.84
2017-04-09T05:53:33.748Z,1017.86
2017-04-09T05:54:27.841Z,1017.85
2017-04-09T05:55:28.924Z,1017.86
2017-04-09T05:56:29.856Z,1017.85
2017-04-09T05:57:24.838Z,1017.88
2017-04-09T05:58:24.947Z,1017.87
2017-04-09T05:59:24.958Z,1017.86
2017-04-09T06:00:25.074Z,1017.87
2017-04-09T06:01:25.050Z,1017.90
2017-04-09T06:02:25.085Z,1017.87
2017-04-09T06:03:31.039Z,1017.88
2017-04-09T06:04:26.090Z,1017.90
2017-04-09T06:05:20.117Z,1017.91
2017-04-09T06:06:20.159Z,1017.88
2017-04-09T06:07:15.230Z,1017.89
2017-04-09T06:08:10.356Z,1017.89
2017-04-09T06:09:10.214Z,1017.92
2017-04-09T06:10:05.296Z,1017.95
2017-04-09T06:11:00.292Z,1017.92
2017-04-09T06:11:54.337Z,1017.92
2017-04-09T06:12:55.405Z,1017.95
2017-04-09T06:13:50.448Z,1017.91
2017-04-09T06:14:50.457Z,1017.96
2017-04-09T06:15:50.503Z,1017.93
2017-04-09T06:16:50.524Z,1017.95
2017-04-09T06:17:50.594Z,1017.92
2017-04-09T06:18:50.645Z,1017.93
2017-04-09T06:19:50.611Z,1017.97
2017-04-09T06:20:50.607Z,1018.00
2017-04-09T06:21:50.675Z,1017.99
2017-04-09T06:22:51.157Z,1018.00
2017-04-09T06:23:50.743Z,1017.97
2017-04-09T06:24:45.819Z,1017.97
2017-04-09T06:25:40.909Z,1017.99
2017-04-09T06:26:40.843Z,1017.97
2017-04-09T06:27:35.918Z,1017.99
2017-04-09T06:28:30.955Z,1018.01
2017-04-09T06:29:24.916Z,1017.96
2017-04-09T06:30:20.035Z,1018.00
2017-04-09T06:31:14.036Z,1017.96
2017-04-09T06:32:08.093Z,1017.95
2017-04-09T06:33:08.121Z,1017.94
2017-04-09T06:34:02.150Z,1017.93
2017-04-09T06:34:50.220Z,1017.91
2017-04-09T06:35:39.240Z,1017.96
2017-04-09T06:36:27.354Z,1017.96
2017-04-09T06:37:15.345Z,1017.99
2017-04-09T06:38:04.434Z,1018.01
2017-04-09T06:38:52.457Z,1017.98
2017-04-09T06:39:40.527Z,1017.99
2017-04-09T06:40:29.532Z,1018.01
2017-04-09T06:41:17.540Z,1017.98
2017-04-09T06:42:05.678Z,1018.00
2017-04-09T06:42:54.683Z,1018.04
2017-04-09T06:43:54.668Z,1018.02
2017-04-09T06:44:48.777Z,1018.03
2017-04-09T06:45:43.763Z,1018.00
2017-04-09T06:46:43.815Z,1018.01
2017-04-09T06:47:37.871Z,1018.05
2017-04-09T06:48:38.911Z,1018.04
2017-04-09T06:49:38.952Z,1018.08
2017-04-09T06:50:34.035Z,1018.06
2017-04-09T06:51:28.034Z,1018.05
2017-04-09T06:52:23.016Z,1018.04
2017-04-09T06:53:18.156Z,1018.03
2017-04-09T06:54:12.136Z,1018.05
2017-04-09T06:55:07.180Z,1018.04
2017-04-09T06:56:07.139Z,1018.11
2017-04-09T06:57:01.292Z,1018.06
2017-04-09T06:58:01.318Z,1018.05
2017-04-09T06:58:55.350Z,1018.08
2017-04-09T06:59:56.359Z,1018.08
2017-04-09T07:00:56.388Z,1018.07
2017-04-09T07:01:51.436Z,1018.07
2017-04-09T07:02:51.728Z,1018.08
2017-04-09T07:03:51.542Z,1018.09
2017-04-09T07:04:45.532Z,1018.05
2017-04-09T07:05:40.596Z,1018.08
2017-04-09T07:06:35.624Z,1018.08
2017-04-09T07:07:29.669Z,1018.09
2017-04-09T07:08:24.727Z,1018.06
2017-04-09T07:09:25.771Z,1018.08
2017-04-09T07:10:20.803Z,1018.05
2017-04-09T07:11:15.811Z,1018.05
2017-04-09T07:12:10.893Z,1018.06
2017-04-09T07:13:10.909Z,1018.03
2017-04-09T07:14:05.980Z,1018.05
2017-04-09T07:15:01.027Z,1018.03
2017-04-09T07:16:01.014Z,1018.02
2017-04-09T07:17:01.055Z,1018.03
2017-04-09T07:17:55.097Z,1017.99
2017-04-09T07:18:50.183Z,1018.04
2017-04-09T07:19:50.166Z,1018.03
2017-04-09T07:20:45.237Z,1018.05
2017-04-09T07:21:45.331Z,1018.10
2017-04-09T07:22:40.404Z,1018.11
2017-04-09T07:23:35.343Z,1018.10
2017-04-09T07:24:29.430Z,1018.11
2017-04-09T07:25:29.454Z,1018.15
2017-04-09T07:26:24.519Z,1018.08
2017-04-09T07:27:19.970Z,1018.06
2017-04-09T07:28:19.573Z,1018.09
2017-04-09T07:29:13.583Z,1018.06
2017-04-09T07:30:07.664Z,1018.09
2017-04-09T07:31:08.748Z,1018.04
2017-04-09T07:32:08.757Z,1018.04
2017-04-09T07:33:08.835Z,1018.03
2017-04-09T07:34:08.872Z,1018.07
2017-04-09T07:35:03.853Z,1018.07
2017-04-09T07:35:58.931Z,1018.07
2017-04-09T07:36:59.965Z,1018.06
2017-04-09T07:37:55.027Z,1018.07
2017-04-09T07:38:50.061Z,1018.10
2017-04-09T07:39:44.057Z,1018.04
2017-04-09T07:40:44.114Z,1018.07
2017-04-09T07:41:38.170Z,1018.01
2017-04-09T07:42:33.221Z,1018.03
2017-04-09T07:43:34.234Z,1018.00
2017-04-09T07:44:34.326Z,1018.02
2017-04-09T07:45:34.366Z,1018.02
2017-04-09T07:46:34.421Z,1018.00
2017-04-09T07:47:34.436Z,1018.03
2017-04-09T07:48:34.492Z,1018.02
2017-04-09T07:49:29.503Z,1018.04
2017-04-09T07:50:24.621Z,1018.07
2017-04-09T07:51:24.610Z,1018.10
2017-04-09T07:52:20.044Z,1018.08
2017-04-09T07:53:14.692Z,1018.07
2017-04-09T07:54:20.756Z,1018.05
2017-04-09T07:55:15.820Z,1018.05
2017-04-09T07:56:04.847Z,1018.10
2017-04-09T07:57:10.914Z,1018.13
2017-04-09T07:58:05.970Z,1018.10
2017-04-09T07:58:59.953Z,1018.13
2017-04-09T08:00:06.048Z,1018.12
2017-04-09T08:01:01.039Z,1018.09
2017-04-09T08:01:55.121Z,1018.10
2017-04-09T08:02:49.606Z,1018.02
2017-04-09T08:03:44.208Z,1018.05
2017-04-09T08:04:39.203Z,1018.05
2017-04-09T08:05:40.275Z,1018.06
2017-04-09T08:06:40.353Z,1018.07
2017-04-09T08:07:34.531Z,1018.10
2017-04-09T08:08:34.480Z,1018.11
2017-04-09T08:09:22.471Z,1018.11
2017-04-09T08:10:22.565Z,1018.11
2017-04-09T08:11:16.575Z,1018.08
2017-04-09T08:12:10.649Z,1018.08
2017-04-09T08:13:04.646Z,1018.11
2017-04-09T08:14:04.681Z,1018.09
2017-04-09T08:14:59.778Z,1018.12
2017-04-09T08:15:53.860Z,1018.10
2017-04-09T08:16:48.855Z,1018.10
2017-04-09T08:17:50.350Z,1018.11
2017-04-09T08:18:49.981Z,1018.10
2017-04-09T08:19:45.002Z,1018.10
2017-04-09T08:20:45.123Z,1018.15
2017-04-09T08:21:40.072Z,1018.13
2017-04-09T08:22:29.172Z,1018.12
2017-04-09T08:23:29.197Z,1018.15
2017-04-09T08:24:24.349Z,1018.13
2017-04-09T08:25:24.277Z,1018.17
2017-04-09T08:26:19.342Z,1018.10
2017-04-09T08:27:19.411Z,1018.09
2017-04-09T08:28:14.477Z,1018.10
2017-04-09T08:29:09.496Z,1018.14
2017-04-09T08:30:09.533Z,1018.14
2017-04-09T08:31:04.555Z,1018.08
2017-04-09T08:31:59.640Z,1018.13
2017-04-09T08:32:53.667Z,1018.13
2017-04-09T08:33:48.742Z,1018.04
2017-04-09T08:34:49.767Z,1018.06
2017-04-09T08:35:44.851Z,1018.05
2017-04-09T08:36:39.859Z,1018.08
2017-04-09T08:37:33.956Z,1018.05
2017-04-09T08:38:28.950Z,1018.05
2017-04-09T08:39:23.065Z,1018.07
2017-04-09T08:40:18.075Z,1018.05
2017-04-09T08:41:18.155Z,1018.06
2017-04-09T08:42:13.170Z,1018.03
2017-04-09T08:43:08.268Z,1018.05
2017-04-09T08:44:02.241Z,1018.05
2017-04-09T08:44:56.318Z,1018.09
2017-04-09T08:45:50.363Z,1018.07
2017-04-09T08:46:45.424Z,1018.06
2017-04-09T08:47:46.473Z,1018.10
2017-04-09T08:48:41.563Z,1017.98
2017-04-09T08:49:41.632Z,1018.04
2017-04-09T08:50:41.631Z,1018.08
2017-04-09T08:51:41.665Z,1018.09
2017-04-09T08:52:41.789Z,1018.11
2017-04-09T08:53:41.814Z,1018.08
2017-04-09T08:54:41.870Z,1018.08
2017-04-09T08:55:41.862Z,1018.04
2017-04-09T08:56:41.977Z,1018.04
2017-04-09T08:57:35.988Z,1018.13
2017-04-09T08:58:36.059Z,1018.12
2017-04-09T08:59:31.082Z,1018.04
2017-04-09T09:00:26.113Z,1018.10
2017-04-09T09:01:20.117Z,1018.11
2017-04-09T09:02:14.277Z,1018.13
2017-04-09T09:03:08.257Z,1018.14
2017-04-09T09:04:03.318Z,1018.12
2017-04-09T09:04:51.394Z,1018.12
2017-04-09T09:05:40.457Z,1018.18
2017-04-09T09:06:35.543Z,1018.14
2017-04-09T09:07:35.568Z,1018.17
2017-04-09T09:08:30.645Z,1018.15
2017-04-09T09:09:25.612Z,1018.14
2017-04-09T09:10:19.716Z,1018.11
2017-04-09T09:11:19.758Z,1018.10
2017-04-09T09:12:13.854Z,1018.10
2017-04-09T09:13:14.851Z,1018.06
2017-04-09T09:14:14.912Z,1018.12
2017-04-09T09:15:08.951Z,1018.11
2017-04-09T09:16:09.035Z,1018.10
2017-04-09T09:17:03.097Z,1018.11
2017-04-09T09:18:04.135Z,1018.09
2017-04-09T09:18:59.175Z,1018.09
2017-04-09T09:19:59.240Z,1018.11
2017-04-09T09:20:48.224Z,1018.07
2017-04-09T09:21:37.364Z,1018.09
2017-04-09T09:22:31.354Z,1018.07
2017-04-09T09:23:26.878Z,1018.08
2017-04-09T09:24:26.525Z,1018.05
2017-04-09T09:25:26.521Z,1018.06
2017-04-09T09:26:26.628Z,1018.04
2017-04-09T09:27:14.624Z,1018.06
2017-04-09T09:28:08.723Z,1018.08
2017-04-09T09:29:02.780Z,1018.05
2017-04-09T09:30:02.857Z,1018.06
2017-04-09T09:30:51.897Z,1018.05
2017-04-09T09:31:47.028Z,1018.07
2017-04-09T09:32:41.042Z,1018.09
2017-04-09T09:33:35.055Z,1018.11
2017-04-09T09:34:30.108Z,1018.10
2017-04-09T09:35:30.150Z,1018.06
2017-04-09T09:36:19.224Z,1018.03
2017-04-09T09:37:13.259Z,1018.09
2017-04-09T09:38:01.338Z,1018.05
2017-04-09T09:39:01.403Z,1018.08
2017-04-09T09:39:55.446Z,1018.07
2017-04-09T09:40:50.508Z,1018.02
2017-04-09T09:41:45.517Z,1018.01
2017-04-09T09:42:45.560Z,1018.00
2017-04-09T09:43:45.644Z,1018.01
2017-04-09T09:44:45.689Z,1018.02
2017-04-09T09:45:45.752Z,1018.03
2017-04-09T09:46:45.800Z,1018.05
2017-04-09T09:47:45.872Z,1018.04
2017-04-09T09:48:39.924Z,1018.04
2017-04-09T09:49:34.964Z,1018.05
2017-04-09T09:50:30.073Z,1018.02
2017-04-09T09:51:25.246Z,1018.06
2017-04-09T09:52:26.733Z,1018.04
2017-04-09T09:53:21.223Z,1017.97
2017-04-09T09:54:15.297Z,1018.00
2017-04-09T09:55:15.337Z,1018.04
2017-04-09T09:56:03.394Z,1018.02
2017-04-09T09:56:57.438Z,1018.03
2017-04-09T09:57:57.516Z,1018.02
2017-04-09T09:58:51.568Z,1018.02
2017-04-09T09:59:52.603Z,1018.02
2017-04-09T10:00:46.641Z,1017.97
2017-04-09T10:01:40.725Z,1017.98
2017-04-09T10:02:29.705Z,1017.92
2017-04-09T10:03:24.864Z,1017.95
2017-04-09T10:04:18.881Z,1017.96
2017-04-09T10:05:24.944Z,1017.90
2017-04-09T10:06:14.005Z,1017.92
2017-04-09T10:07:02.072Z,1017.93
2017-04-09T10:07:57.473Z,1017.87
2017-04-09T10:08:51.094Z,1017.92
2017-04-09T10:09:45.269Z,1017.91
2017-04-09T10:10:34.277Z,1017.87
2017-04-09T10:11:28.595Z,1017.88
2017-04-09T10:12:17.351Z,1017.92
2017-04-09T10:13:11.475Z,1017.84
2017-04-09T10:14:11.547Z,1017.85
2017-04-09T10:15:06.565Z,1017.85
2017-04-09T10:16:00.593Z,1017.87
2017-04-09T10:16:55.634Z,1017.92
2017-04-09T10:17:50.772Z,1017.88
2017-04-09T10:18:39.820Z,1017.88
2017-04-09T10:19:33.878Z,1017.83
2017-04-09T10:20:28.938Z,1017.83
2017-04-09T10:21:22.936Z,1017.82
2017-04-09T10:22:12.039Z,1017.79
2017-04-09T10:23:06.064Z,1017.78
2017-04-09T10:23:55.163Z,1017.79
2017-04-09T10:24:49.202Z,1017.75
2017-04-09T10:25:49.344Z,1017.73
2017-04-09T10:26:44.294Z,1017.76
2017-04-09T10:27:33.352Z,1017.71
2017-04-09T10:28:22.428Z,1017.70
2017-04-09T10:29:10.458Z,1017.69
2017-04-09T10:30:10.526Z,1017.66
2017-04-09T10:30:58.581Z,1017.69
2017-04-09T10:31:53.641Z,1017.60
2017-04-09T10:32:54.678Z,1017.63
2017-04-09T10:33:54.718Z,1017.66
2017-04-09T10:34:48.818Z,1017.66
2017-04-09T10:35:43.865Z,1017.67
2017-04-09T10:36:37.924Z,1017.64
2017-04-09T10:37:37.965Z,1017.65
2017-04-09T10:38:25.997Z,1017.66
2017-04-09T10:39:14.100Z,1017.63
2017-04-09T10:40:03.170Z,1017.65
2017-04-09T10:40:57.291Z,1017.71
2017-04-09T10:41:57.310Z,1017.69
2017-04-09T10:42:51.309Z,1017.66
2017-04-09T10:43:45.341Z,1017.68
2017-04-09T10:44:39.447Z,1017.65
2017-04-09T10:45:28.493Z,1017.62
2017-04-09T10:46:23.553Z,1017.62
2017-04-09T10:47:18.602Z,1017.60
2017-04-09T10:48:07.672Z,1017.61
2017-04-09T10:49:08.732Z,1017.59
2017-04-09T10:49:57.749Z,1017.62
2017-04-09T10:50:46.813Z,1017.61
2017-04-09T10:51:40.943Z,1017.59
2017-04-09T10:52:29.895Z,1017.61
2017-04-09T10:53:19.044Z,1017.55
2017-04-09T10:54:07.072Z,1017.56
2017-04-09T10:55:01.114Z,1017.57
2017-04-09T10:55:55.205Z,1017.57
2017-04-09T10:56:55.250Z,1017.56
2017-04-09T10:57:44.317Z,1017.54
2017-04-09T10:58:33.354Z,1017.56
2017-04-09T10:59:22.397Z,1017.57
2017-04-09T11:00:17.448Z,1017.52
2017-04-09T11:01:05.532Z,1017.54
2017-04-09T11:01:59.619Z,1017.55
2017-04-09T11:02:48.716Z,1017.53
2017-04-09T11:03:42.727Z,1017.54
2017-04-09T11:04:36.747Z,1017.54
2017-04-09T11:05:36.805Z,1017.52
2017-04-09T11:06:30.870Z,1017.57
2017-04-09T11:07:36.948Z,1017.54
2017-04-09T11:08:31.022Z,1017.47
2017-04-09T11:09:31.079Z,1017.48
2017-04-09T11:10:20.171Z,1017.52
2017-04-09T11:11:08.228Z,1017.53
2017-04-09T11:12:02.316Z,1017.47
2017-04-09T11:13:02.353Z,1017.43
2017-04-09T11:13:56.449Z,1017.46
2017-04-09T11:14:56.446Z,1017.49
2017-04-09T11:15:51.578Z,1017.46
2017-04-09T11:16:46.621Z,1017.49
2017-04-09T11:17:35.629Z,1017.52
2017-04-09T11:18:23.740Z,1017.48
2017-04-09T11:19:11.789Z,1017.47
2017-04-09T11:20:06.824Z,1017.45
2017-04-09T11:21:01.946Z,1017.39
2017-04-09T11:21:56.062Z,1017.46
2017-04-09T11:22:56.093Z,1017.42
2017-04-09T11:23:56.173Z,1017.38
2017-04-09T11:24:50.239Z,1017.43